sensor_id;sensor_type;location;lat;lon;timestamp;temperature;humidity
65989;HTU21D;53592;51.402;6.054;2023-07-31T00:00:05;18.21;85.06
65989;HTU21D;53592;51.402;6.054;2023-07-31T00:02:30;18.22;85.16
65989;HTU21D;53592;51.402;6.054;2023-07-31T00:04:56;18.20;85.06
65989;HTU21D;53592;51.402;6.054;2023-07-31T00:07:23;18.19;85.04
65989;HTU21D;53592;51.402;6.054;2023-07-31T00:09:49;18.24;84.79
65989;HTU21D;53592;51.402;6.054;2023-07-31T00:12:14;18.18;84.92
65989;HTU21D;53592;51.402;6.054;2023-07-31T00:14:42;18.14;85.08
65989;HTU21D;53592;51.402;6.054;2023-07-31T00:17:07;18.09;85.34
65989;HTU21D;53592;51.402;6.054;2023-07-31T00:19:33;18.10;85.27
65989;HTU21D;53592;51.402;6.054;2023-07-31T00:21:58;18.12;85.13
65989;HTU21D;53592;51.402;6.054;2023-07-31T00:24:24;18.10;85.06
65989;HTU21D;53592;51.402;6.054;2023-07-31T00:26:49;18.13;85.16
65989;HTU21D;53592;51.402;6.054;2023-07-31T00:29:15;18.10;85.00
65989;HTU21D;53592;51.402;6.054;2023-07-31T00:31:40;18.15;84.88
65989;HTU21D;53592;51.402;6.054;2023-07-31T00:34:05;18.11;85.02
65989;HTU21D;53592;51.402;6.054;2023-07-31T00:36:31;18.12;85.11
65989;HTU21D;53592;51.402;6.054;2023-07-31T00:38:59;18.12;84.89
65989;HTU21D;53592;51.402;6.054;2023-07-31T00:41:24;18.12;84.84
65989;HTU21D;53592;51.402;6.054;2023-07-31T00:43:50;18.11;84.76
65989;HTU21D;53592;51.402;6.054;2023-07-31T00:46:15;18.10;84.77
65989;HTU21D;53592;51.402;6.054;2023-07-31T00:48:41;18.11;84.72
65989;HTU21D;53592;51.402;6.054;2023-07-31T00:51:07;18.09;84.66
65989;HTU21D;53592;51.402;6.054;2023-07-31T00:53:34;18.10;84.61
65989;HTU21D;53592;51.402;6.054;2023-07-31T00:55:59;18.12;84.41
65989;HTU21D;53592;51.402;6.054;2023-07-31T00:58:25;18.12;84.19
65989;HTU21D;53592;51.402;6.054;2023-07-31T01:00:50;18.11;84.10
65989;HTU21D;53592;51.402;6.054;2023-07-31T01:03:17;18.08;84.05
65989;HTU21D;53592;51.402;6.054;2023-07-31T01:05:58;18.11;84.05
65989;HTU21D;53592;51.402;6.054;2023-07-31T01:08:41;18.11;83.78
65989;HTU21D;53592;51.402;6.054;2023-07-31T01:11:18;18.14;83.66
65989;HTU21D;53592;51.402;6.054;2023-07-31T01:13:45;18.12;83.25
65989;HTU21D;53592;51.402;6.054;2023-07-31T01:16:11;18.13;82.87
65989;HTU21D;53592;51.402;6.054;2023-07-31T01:18:37;18.14;82.68
65989;HTU21D;53592;51.402;6.054;2023-07-31T01:29:43;18.00;82.65
65989;HTU21D;53592;51.402;6.054;2023-07-31T01:32:13;18.02;82.29
65989;HTU21D;53592;51.402;6.054;2023-07-31T01:34:41;17.99;82.17
65989;HTU21D;53592;51.402;6.054;2023-07-31T01:37:07;18.00;82.22
65989;HTU21D;53592;51.402;6.054;2023-07-31T01:39:33;17.97;82.36
65989;HTU21D;53592;51.402;6.054;2023-07-31T01:41:59;17.97;82.17
65989;HTU21D;53592;51.402;6.054;2023-07-31T01:44:24;17.98;81.98
65989;HTU21D;53592;51.402;6.054;2023-07-31T01:46:49;17.96;81.96
65989;HTU21D;53592;51.402;6.054;2023-07-31T01:49:15;17.96;81.89
65989;HTU21D;53592;51.402;6.054;2023-07-31T01:51:40;17.95;81.67
65989;HTU21D;53592;51.402;6.054;2023-07-31T01:54:06;17.97;81.68
65989;HTU21D;53592;51.402;6.054;2023-07-31T01:56:31;17.99;81.24
65989;HTU21D;53592;51.402;6.054;2023-07-31T01:58:57;17.93;81.47
65989;HTU21D;53592;51.402;6.054;2023-07-31T02:01:22;17.92;81.50
65989;HTU21D;53592;51.402;6.054;2023-07-31T02:03:48;17.91;81.49
65989;HTU21D;53592;51.402;6.054;2023-07-31T02:06:13;17.94;81.21
65989;HTU21D;53592;51.402;6.054;2023-07-31T02:08:38;17.91;81.13
65989;HTU21D;53592;51.402;6.054;2023-07-31T02:11:04;17.90;81.01
65989;HTU21D;53592;51.402;6.054;2023-07-31T02:13:29;17.92;80.86
65989;HTU21D;53592;51.402;6.054;2023-07-31T02:15:55;17.84;81.27
65989;HTU21D;53592;51.402;6.054;2023-07-31T02:18:20;17.82;81.46
65989;HTU21D;53592;51.402;6.054;2023-07-31T02:20:51;17.80;81.37
65989;HTU21D;53592;51.402;6.054;2023-07-31T02:23:18;17.82;81.39
65989;HTU21D;53592;51.402;6.054;2023-07-31T02:25:44;17.84;81.14
65989;HTU21D;53592;51.402;6.054;2023-07-31T02:28:10;17.83;81.19
65989;HTU21D;53592;51.402;6.054;2023-07-31T02:30:36;17.82;81.31
65989;HTU21D;53592;51.402;6.054;2023-07-31T02:33:01;17.85;81.19
65989;HTU21D;53592;51.402;6.054;2023-07-31T02:35:26;17.83;81.30
65989;HTU21D;53592;51.402;6.054;2023-07-31T02:37:52;17.81;81.45
65989;HTU21D;53592;51.402;6.054;2023-07-31T02:40:17;17.87;81.18
65989;HTU21D;53592;51.402;6.054;2023-07-31T02:42:43;17.84;81.42
65989;HTU21D;53592;51.402;6.054;2023-07-31T02:45:09;17.83;81.37
65989;HTU21D;53592;51.402;6.054;2023-07-31T02:47:34;17.83;81.40
65989;HTU21D;53592;51.402;6.054;2023-07-31T02:50:00;17.84;81.51
65989;HTU21D;53592;51.402;6.054;2023-07-31T02:52:26;17.84;81.61
65989;HTU21D;53592;51.402;6.054;2023-07-31T02:54:52;17.84;81.62
65989;HTU21D;53592;51.402;6.054;2023-07-31T02:57:17;17.88;81.52
65989;HTU21D;53592;51.402;6.054;2023-07-31T02:59:42;17.85;81.64
65989;HTU21D;53592;51.402;6.054;2023-07-31T03:02:08;17.88;81.72
65989;HTU21D;53592;51.402;6.054;2023-07-31T03:04:33;17.89;81.72
65989;HTU21D;53592;51.402;6.054;2023-07-31T03:09:27;17.96;81.53
65989;HTU21D;53592;51.402;6.054;2023-07-31T03:11:52;17.97;81.72
65989;HTU21D;53592;51.402;6.054;2023-07-31T03:14:18;18.00;81.60
65989;HTU21D;53592;51.402;6.054;2023-07-31T03:16:43;18.03;81.48
65989;HTU21D;53592;51.402;6.054;2023-07-31T03:19:09;18.02;81.66
65989;HTU21D;53592;51.402;6.054;2023-07-31T03:21:34;18.04;81.55
65989;HTU21D;53592;51.402;6.054;2023-07-31T03:24:00;18.06;81.39
65989;HTU21D;53592;51.402;6.054;2023-07-31T03:26:25;18.03;81.55
65989;HTU21D;53592;51.402;6.054;2023-07-31T03:28:50;18.04;81.58
65989;HTU21D;53592;51.402;6.054;2023-07-31T03:31:16;18.07;81.48
65989;HTU21D;53592;51.402;6.054;2023-07-31T03:33:41;18.08;81.50
65989;HTU21D;53592;51.402;6.054;2023-07-31T03:36:07;18.09;81.43
65989;HTU21D;53592;51.402;6.054;2023-07-31T03:38:34;18.06;81.55
65989;HTU21D;53592;51.402;6.054;2023-07-31T03:40:59;18.05;81.65
65989;HTU21D;53592;51.402;6.054;2023-07-31T03:43:25;18.05;81.66
65989;HTU21D;53592;51.402;6.054;2023-07-31T03:45:50;18.05;81.75
65989;HTU21D;53592;51.402;6.054;2023-07-31T03:48:16;18.03;81.89
65989;HTU21D;53592;51.402;6.054;2023-07-31T03:50:42;18.06;81.88
65989;HTU21D;53592;51.402;6.054;2023-07-31T03:53:07;18.05;81.85
65989;HTU21D;53592;51.402;6.054;2023-07-31T03:55:33;18.06;82.07
65989;HTU21D;53592;51.402;6.054;2023-07-31T03:57:58;18.08;81.91
65989;HTU21D;53592;51.402;6.054;2023-07-31T04:00:26;18.08;81.87
65989;HTU21D;53592;51.402;6.054;2023-07-31T04:02:52;18.12;81.91
65989;HTU21D;53592;51.402;6.054;2023-07-31T04:05:17;18.11;81.95
65989;HTU21D;53592;51.402;6.054;2023-07-31T04:07:43;18.10;82.07
65989;HTU21D;53592;51.402;6.054;2023-07-31T04:10:09;18.14;82.11
65989;HTU21D;53592;51.402;6.054;2023-07-31T04:12:34;18.17;81.96
65989;HTU21D;53592;51.402;6.054;2023-07-31T04:15:00;18.18;81.94
65989;HTU21D;53592;51.402;6.054;2023-07-31T04:17:25;18.15;82.05
65989;HTU21D;53592;51.402;6.054;2023-07-31T04:19:50;18.13;82.13
65989;HTU21D;53592;51.402;6.054;2023-07-31T04:22:16;18.14;82.26
65989;HTU21D;53592;51.402;6.054;2023-07-31T04:24:41;18.18;82.12
65989;HTU21D;53592;51.402;6.054;2023-07-31T04:27:07;18.22;81.80
65989;HTU21D;53592;51.402;6.054;2023-07-31T04:29:32;18.19;82.06
65989;HTU21D;53592;51.402;6.054;2023-07-31T04:31:58;18.18;82.20
65989;HTU21D;53592;51.402;6.054;2023-07-31T04:34:23;18.21;82.29
65989;HTU21D;53592;51.402;6.054;2023-07-31T04:36:48;18.25;82.21
65989;HTU21D;53592;51.402;6.054;2023-07-31T04:39:14;18.26;82.20
65989;HTU21D;53592;51.402;6.054;2023-07-31T04:41:39;18.29;82.18
65989;HTU21D;53592;51.402;6.054;2023-07-31T04:44:05;18.28;82.13
65989;HTU21D;53592;51.402;6.054;2023-07-31T04:46:30;18.32;82.13
65989;HTU21D;53592;51.402;6.054;2023-07-31T04:48:56;18.35;81.93
65989;HTU21D;53592;51.402;6.054;2023-07-31T04:51:22;18.32;82.30
65989;HTU21D;53592;51.402;6.054;2023-07-31T04:53:48;18.32;82.32
65989;HTU21D;53592;51.402;6.054;2023-07-31T04:56:15;18.32;82.20
65989;HTU21D;53592;51.402;6.054;2023-07-31T04:58:40;18.35;82.26
65989;HTU21D;53592;51.402;6.054;2023-07-31T05:01:06;18.38;82.20
65989;HTU21D;53592;51.402;6.054;2023-07-31T05:03:31;18.38;82.28
65989;HTU21D;53592;51.402;6.054;2023-07-31T05:05:57;18.41;82.23
65989;HTU21D;53592;51.402;6.054;2023-07-31T05:08:22;18.42;82.17
65989;HTU21D;53592;51.402;6.054;2023-07-31T05:10:48;18.48;82.10
65989;HTU21D;53592;51.402;6.054;2023-07-31T05:13:14;18.46;81.75
65989;HTU21D;53592;51.402;6.054;2023-07-31T05:15:41;18.42;82.10
65989;HTU21D;53592;51.402;6.054;2023-07-31T05:18:06;18.44;82.09
65989;HTU21D;53592;51.402;6.054;2023-07-31T05:20:32;18.48;82.01
65989;HTU21D;53592;51.402;6.054;2023-07-31T05:22:57;18.48;82.10
65989;HTU21D;53592;51.402;6.054;2023-07-31T05:25:23;18.51;82.14
65989;HTU21D;53592;51.402;6.054;2023-07-31T05:27:48;18.54;82.14
65989;HTU21D;53592;51.402;6.054;2023-07-31T05:30:14;18.52;82.17
65989;HTU21D;53592;51.402;6.054;2023-07-31T05:32:39;18.51;82.41
65989;HTU21D;53592;51.402;6.054;2023-07-31T05:35:05;18.55;82.29
65989;HTU21D;53592;51.402;6.054;2023-07-31T05:37:30;18.52;82.55
65989;HTU21D;53592;51.402;6.054;2023-07-31T05:39:56;18.50;82.67
65989;HTU21D;53592;51.402;6.054;2023-07-31T05:42:22;18.53;82.86
65989;HTU21D;53592;51.402;6.054;2023-07-31T05:44:47;18.47;83.12
65989;HTU21D;53592;51.402;6.054;2023-07-31T05:47:13;18.40;83.41
65989;HTU21D;53592;51.402;6.054;2023-07-31T05:49:38;18.40;83.66
65989;HTU21D;53592;51.402;6.054;2023-07-31T05:52:04;18.39;84.00
65989;HTU21D;53592;51.402;6.054;2023-07-31T05:54:30;18.42;84.05
65989;HTU21D;53592;51.402;6.054;2023-07-31T05:56:55;18.40;84.17
65989;HTU21D;53592;51.402;6.054;2023-07-31T05:59:21;18.41;84.13
65989;HTU21D;53592;51.402;6.054;2023-07-31T06:01:46;18.37;84.47
65989;HTU21D;53592;51.402;6.054;2023-07-31T06:04:11;18.38;84.41
65989;HTU21D;53592;51.402;6.054;2023-07-31T06:06:37;18.38;84.77
65989;HTU21D;53592;51.402;6.054;2023-07-31T06:09:03;18.40;84.47
65989;HTU21D;53592;51.402;6.054;2023-07-31T06:11:29;18.34;84.77
65989;HTU21D;53592;51.402;6.054;2023-07-31T06:13:54;18.30;84.90
65989;HTU21D;53592;51.402;6.054;2023-07-31T06:16:20;18.30;85.06
65989;HTU21D;53592;51.402;6.054;2023-07-31T06:18:47;18.27;85.19
65989;HTU21D;53592;51.402;6.054;2023-07-31T06:21:13;18.27;84.98
65989;HTU21D;53592;51.402;6.054;2023-07-31T06:23:38;18.22;85.58
65989;HTU21D;53592;51.402;6.054;2023-07-31T06:26:04;18.22;85.32
65989;HTU21D;53592;51.402;6.054;2023-07-31T06:28:31;18.18;85.74
65989;HTU21D;53592;51.402;6.054;2023-07-31T06:30:57;18.20;85.75
65989;HTU21D;53592;51.402;6.054;2023-07-31T06:33:23;18.17;86.08
65989;HTU21D;53592;51.402;6.054;2023-07-31T06:35:49;18.14;86.41
65989;HTU21D;53592;51.402;6.054;2023-07-31T06:38:14;18.12;86.63
65989;HTU21D;53592;51.402;6.054;2023-07-31T06:40:40;18.14;86.48
65989;HTU21D;53592;51.402;6.054;2023-07-31T06:43:06;18.15;86.63
65989;HTU21D;53592;51.402;6.054;2023-07-31T06:45:37;18.17;86.83
65989;HTU21D;53592;51.402;6.054;2023-07-31T06:48:04;18.15;86.64
65989;HTU21D;53592;51.402;6.054;2023-07-31T06:50:33;18.09;86.87
65989;HTU21D;53592;51.402;6.054;2023-07-31T06:52:59;18.14;86.86
65989;HTU21D;53592;51.402;6.054;2023-07-31T06:55:25;18.13;86.83
65989;HTU21D;53592;51.402;6.054;2023-07-31T06:57:53;18.11;86.74
65989;HTU21D;53592;51.402;6.054;2023-07-31T07:00:20;18.08;87.01
65989;HTU21D;53592;51.402;6.054;2023-07-31T07:02:46;18.10;87.02
65989;HTU21D;53592;51.402;6.054;2023-07-31T07:05:16;18.08;87.32
65989;HTU21D;53592;51.402;6.054;2023-07-31T07:07:43;18.12;87.18
65989;HTU21D;53592;51.402;6.054;2023-07-31T07:10:11;18.10;87.22
65989;HTU21D;53592;51.402;6.054;2023-07-31T07:12:37;18.09;87.29
65989;HTU21D;53592;51.402;6.054;2023-07-31T07:15:03;18.05;87.35
65989;HTU21D;53592;51.402;6.054;2023-07-31T07:17:29;17.99;87.63
65989;HTU21D;53592;51.402;6.054;2023-07-31T07:19:58;17.98;87.80
65989;HTU21D;53592;51.402;6.054;2023-07-31T07:22:24;18.05;87.46
65989;HTU21D;53592;51.402;6.054;2023-07-31T07:24:52;18.00;87.56
65989;HTU21D;53592;51.402;6.054;2023-07-31T07:27:17;18.10;87.22
65989;HTU21D;53592;51.402;6.054;2023-07-31T07:29:46;18.04;87.25
65989;HTU21D;53592;51.402;6.054;2023-07-31T07:32:12;18.04;87.30
65989;HTU21D;53592;51.402;6.054;2023-07-31T07:38:01;17.99;87.06
65989;HTU21D;53592;51.402;6.054;2023-07-31T07:40:27;18.02;86.67
65989;HTU21D;53592;51.402;6.054;2023-07-31T07:42:52;17.97;87.02
65989;HTU21D;53592;51.402;6.054;2023-07-31T07:45:18;18.00;87.06
65989;HTU21D;53592;51.402;6.054;2023-07-31T07:47:46;18.09;86.77
65989;HTU21D;53592;51.402;6.054;2023-07-31T07:50:12;18.09;87.10
65989;HTU21D;53592;51.402;6.054;2023-07-31T07:52:37;18.13;87.02
65989;HTU21D;53592;51.402;6.054;2023-07-31T07:55:03;18.23;86.63
65989;HTU21D;53592;51.402;6.054;2023-07-31T07:57:29;18.28;86.43
65989;HTU21D;53592;51.402;6.054;2023-07-31T07:59:54;18.28;86.49
65989;HTU21D;53592;51.402;6.054;2023-07-31T08:02:21;18.32;86.05
65989;HTU21D;53592;51.402;6.054;2023-07-31T08:04:47;18.28;86.27
65989;HTU21D;53592;51.402;6.054;2023-07-31T08:07:12;18.35;85.90
65989;HTU21D;53592;51.402;6.054;2023-07-31T08:09:38;18.39;85.57
65989;HTU21D;53592;51.402;6.054;2023-07-31T08:12:04;18.33;85.80
65989;HTU21D;53592;51.402;6.054;2023-07-31T08:14:30;18.28;86.09
65989;HTU21D;53592;51.402;6.054;2023-07-31T08:16:55;18.35;85.56
65989;HTU21D;53592;51.402;6.054;2023-07-31T08:19:21;18.34;85.63
65989;HTU21D;53592;51.402;6.054;2023-07-31T08:21:46;18.33;85.64
65989;HTU21D;53592;51.402;6.054;2023-07-31T08:24:12;18.25;86.00
65989;HTU21D;53592;51.402;6.054;2023-07-31T08:26:37;18.23;86.29
65989;HTU21D;53592;51.402;6.054;2023-07-31T08:29:03;18.22;86.20
65989;HTU21D;53592;51.402;6.054;2023-07-31T08:31:28;18.21;86.37
65989;HTU21D;53592;51.402;6.054;2023-07-31T08:33:54;18.22;86.49
65989;HTU21D;53592;51.402;6.054;2023-07-31T08:36:20;18.19;86.73
65989;HTU21D;53592;51.402;6.054;2023-07-31T08:38:45;18.27;86.50
65989;HTU21D;53592;51.402;6.054;2023-07-31T08:41:11;18.26;86.79
65989;HTU21D;53592;51.402;6.054;2023-07-31T08:43:39;18.26;86.77
65989;HTU21D;53592;51.402;6.054;2023-07-31T08:46:05;18.28;86.76
65989;HTU21D;53592;51.402;6.054;2023-07-31T08:48:32;18.29;86.90
65989;HTU21D;53592;51.402;6.054;2023-07-31T08:50:58;18.34;87.12
65989;HTU21D;53592;51.402;6.054;2023-07-31T08:53:24;18.43;86.73
65989;HTU21D;53592;51.402;6.054;2023-07-31T08:55:52;18.44;86.83
65989;HTU21D;53592;51.402;6.054;2023-07-31T08:58:18;18.51;86.75
65989;HTU21D;53592;51.402;6.054;2023-07-31T09:00:46;18.58;86.27
65989;HTU21D;53592;51.402;6.054;2023-07-31T09:03:15;18.58;86.31
65989;HTU21D;53592;51.402;6.054;2023-07-31T09:05:43;18.59;86.11
65989;HTU21D;53592;51.402;6.054;2023-07-31T09:08:15;18.59;86.14
65989;HTU21D;53592;51.402;6.054;2023-07-31T09:10:44;18.61;85.90
65989;HTU21D;53592;51.402;6.054;2023-07-31T09:13:12;18.58;86.02
65989;HTU21D;53592;51.402;6.054;2023-07-31T09:15:39;18.67;85.58
65989;HTU21D;53592;51.402;6.054;2023-07-31T09:18:06;18.57;86.06
65989;HTU21D;53592;51.402;6.054;2023-07-31T09:20:31;18.56;85.83
65989;HTU21D;53592;51.402;6.054;2023-07-31T09:23:09;18.53;86.16
65989;HTU21D;53592;51.402;6.054;2023-07-31T09:25:36;18.59;86.08
65989;HTU21D;53592;51.402;6.054;2023-07-31T09:28:07;18.56;86.24
65989;HTU21D;53592;51.402;6.054;2023-07-31T09:31:03;18.59;86.67
65989;HTU21D;53592;51.402;6.054;2023-07-31T09:33:28;18.64;86.45
65989;HTU21D;53592;51.402;6.054;2023-07-31T09:35:54;18.66;86.28
65989;HTU21D;53592;51.402;6.054;2023-07-31T09:38:19;18.67;85.82
65989;HTU21D;53592;51.402;6.054;2023-07-31T09:40:47;18.71;85.65
65989;HTU21D;53592;51.402;6.054;2023-07-31T09:43:17;18.69;86.01
65989;HTU21D;53592;51.402;6.054;2023-07-31T09:45:44;18.72;85.57
65989;HTU21D;53592;51.402;6.054;2023-07-31T09:48:15;18.77;85.42
65989;HTU21D;53592;51.402;6.054;2023-07-31T09:50:48;18.76;85.39
65989;HTU21D;53592;51.402;6.054;2023-07-31T09:53:15;18.82;85.30
65989;HTU21D;53592;51.402;6.054;2023-07-31T09:55:42;18.85;85.26
65989;HTU21D;53592;51.402;6.054;2023-07-31T09:58:13;18.93;84.49
65989;HTU21D;53592;51.402;6.054;2023-07-31T10:00:39;18.99;84.10
65989;HTU21D;53592;51.402;6.054;2023-07-31T10:03:09;18.97;84.45
65989;HTU21D;53592;51.402;6.054;2023-07-31T10:05:38;19.06;83.89
65989;HTU21D;53592;51.402;6.054;2023-07-31T10:08:06;19.06;84.13
65989;HTU21D;53592;51.402;6.054;2023-07-31T10:10:32;19.10;83.93
65989;HTU21D;53592;51.402;6.054;2023-07-31T10:13:02;19.16;83.92
65989;HTU21D;53592;51.402;6.054;2023-07-31T10:15:28;19.18;83.81
65989;HTU21D;53592;51.402;6.054;2023-07-31T10:17:55;19.26;83.78
65989;HTU21D;53592;51.402;6.054;2023-07-31T10:20:21;19.32;83.34
65989;HTU21D;53592;51.402;6.054;2023-07-31T10:22:47;19.44;83.17
65989;HTU21D;53592;51.402;6.054;2023-07-31T10:25:15;19.52;82.76
65989;HTU21D;53592;51.402;6.054;2023-07-31T10:27:42;19.53;82.47
65989;HTU21D;53592;51.402;6.054;2023-07-31T10:30:16;19.58;82.00
65989;HTU21D;53592;51.402;6.054;2023-07-31T10:32:44;19.58;81.72
65989;HTU21D;53592;51.402;6.054;2023-07-31T10:35:11;19.54;81.98
65989;HTU21D;53592;51.402;6.054;2023-07-31T10:37:42;19.54;82.15
65989;HTU21D;53592;51.402;6.054;2023-07-31T10:40:16;19.59;81.97
65989;HTU21D;53592;51.402;6.054;2023-07-31T10:45:32;19.60;81.72
65989;HTU21D;53592;51.402;6.054;2023-07-31T10:48:00;19.58;81.72
65989;HTU21D;53592;51.402;6.054;2023-07-31T10:50:27;19.62;81.39
65989;HTU21D;53592;51.402;6.054;2023-07-31T10:52:54;19.56;81.23
65989;HTU21D;53592;51.402;6.054;2023-07-31T10:55:46;19.50;81.11
65989;HTU21D;53592;51.402;6.054;2023-07-31T10:58:13;19.41;81.84
65989;HTU21D;53592;51.402;6.054;2023-07-31T11:00:42;19.44;81.81
65989;HTU21D;53592;51.402;6.054;2023-07-31T11:03:12;19.48;82.26
65989;HTU21D;53592;51.402;6.054;2023-07-31T11:06:01;19.59;82.39
65989;HTU21D;53592;51.402;6.054;2023-07-31T11:08:33;19.73;82.00
65989;HTU21D;53592;51.402;6.054;2023-07-31T11:13:48;19.77;80.80
65989;HTU21D;53592;51.402;6.054;2023-07-31T11:16:24;19.82;80.96
65989;HTU21D;53592;51.402;6.054;2023-07-31T11:18:54;19.97;80.27
65989;HTU21D;53592;51.402;6.054;2023-07-31T11:21:24;19.91;80.38
65989;HTU21D;53592;51.402;6.054;2023-07-31T11:23:57;19.90;80.66
65989;HTU21D;53592;51.402;6.054;2023-07-31T11:26:25;19.92;80.10
65989;HTU21D;53592;51.402;6.054;2023-07-31T11:28:51;19.91;80.30
65989;HTU21D;53592;51.402;6.054;2023-07-31T11:31:17;19.95;80.23
65989;HTU21D;53592;51.402;6.054;2023-07-31T11:33:43;19.97;80.06
65989;HTU21D;53592;51.402;6.054;2023-07-31T11:36:16;20.00;79.71
65989;HTU21D;53592;51.402;6.054;2023-07-31T11:38:41;20.00;80.07
65989;HTU21D;53592;51.402;6.054;2023-07-31T11:41:07;20.03;79.95
65989;HTU21D;53592;51.402;6.054;2023-07-31T11:43:33;20.06;79.88
65989;HTU21D;53592;51.402;6.054;2023-07-31T11:46:01;20.16;79.63
65989;HTU21D;53592;51.402;6.054;2023-07-31T11:48:37;20.28;79.42
65989;HTU21D;53592;51.402;6.054;2023-07-31T11:51:09;20.35;79.17
65989;HTU21D;53592;51.402;6.054;2023-07-31T11:56:17;20.47;78.55
65989;HTU21D;53592;51.402;6.054;2023-07-31T11:58:47;20.46;78.31
65989;HTU21D;53592;51.402;6.054;2023-07-31T12:01:21;20.45;78.18
65989;HTU21D;53592;51.402;6.054;2023-07-31T12:03:49;20.44;78.31
65989;HTU21D;53592;51.402;6.054;2023-07-31T12:06:15;20.45;78.40
65989;HTU21D;53592;51.402;6.054;2023-07-31T12:08:41;20.48;78.17
65989;HTU21D;53592;51.402;6.054;2023-07-31T12:11:08;20.44;78.17
65989;HTU21D;53592;51.402;6.054;2023-07-31T12:13:37;20.40;78.39
65989;HTU21D;53592;51.402;6.054;2023-07-31T12:16:04;20.37;78.60
65989;HTU21D;53592;51.402;6.054;2023-07-31T12:18:34;20.37;78.05
65989;HTU21D;53592;51.402;6.054;2023-07-31T12:21:03;20.25;78.76
65989;HTU21D;53592;51.402;6.054;2023-07-31T12:23:31;20.24;79.18
65989;HTU21D;53592;51.402;6.054;2023-07-31T12:28:30;20.27;79.38
65989;HTU21D;53592;51.402;6.054;2023-07-31T12:31:00;20.33;79.04
65989;HTU21D;53592;51.402;6.054;2023-07-31T12:33:32;20.35;79.19
65989;HTU21D;53592;51.402;6.054;2023-07-31T12:36:00;20.36;79.25
65989;HTU21D;53592;51.402;6.054;2023-07-31T12:38:26;20.40;79.10
65989;HTU21D;53592;51.402;6.054;2023-07-31T12:40:51;20.37;79.26
65989;HTU21D;53592;51.402;6.054;2023-07-31T12:43:17;20.35;79.30
65989;HTU21D;53592;51.402;6.054;2023-07-31T12:45:42;20.42;79.38
65989;HTU21D;53592;51.402;6.054;2023-07-31T12:48:11;20.43;78.59
65989;HTU21D;53592;51.402;6.054;2023-07-31T12:50:36;20.36;78.88
65989;HTU21D;53592;51.402;6.054;2023-07-31T12:53:02;20.36;78.71
65989;HTU21D;53592;51.402;6.054;2023-07-31T12:55:31;20.36;79.01
65989;HTU21D;53592;51.402;6.054;2023-07-31T12:57:58;20.37;78.75
65989;HTU21D;53592;51.402;6.054;2023-07-31T13:00:26;20.41;78.62
65989;HTU21D;53592;51.402;6.054;2023-07-31T13:02:52;20.35;78.84
65989;HTU21D;53592;51.402;6.054;2023-07-31T13:05:21;20.35;78.71
65989;HTU21D;53592;51.402;6.054;2023-07-31T13:07:47;20.39;78.85
65989;HTU21D;53592;51.402;6.054;2023-07-31T13:10:13;20.40;78.75
65989;HTU21D;53592;51.402;6.054;2023-07-31T13:12:39;20.44;78.68
65989;HTU21D;53592;51.402;6.054;2023-07-31T13:15:10;20.43;78.98
65989;HTU21D;53592;51.402;6.054;2023-07-31T13:17:36;20.43;79.08
65989;HTU21D;53592;51.402;6.054;2023-07-31T13:22:29;20.50;79.29
65989;HTU21D;53592;51.402;6.054;2023-07-31T13:24:55;20.50;79.34
65989;HTU21D;53592;51.402;6.054;2023-07-31T13:27:21;20.58;79.33
65989;HTU21D;53592;51.402;6.054;2023-07-31T13:29:51;20.56;79.19
65989;HTU21D;53592;51.402;6.054;2023-07-31T13:32:17;20.56;79.37
65989;HTU21D;53592;51.402;6.054;2023-07-31T13:34:44;20.57;79.20
65989;HTU21D;53592;51.402;6.054;2023-07-31T13:37:09;20.55;79.32
65989;HTU21D;53592;51.402;6.054;2023-07-31T13:39:35;20.55;79.26
65989;HTU21D;53592;51.402;6.054;2023-07-31T13:42:02;20.48;79.36
65989;HTU21D;53592;51.402;6.054;2023-07-31T13:44:28;20.55;79.07
65989;HTU21D;53592;51.402;6.054;2023-07-31T13:46:54;20.56;78.99
65989;HTU21D;53592;51.402;6.054;2023-07-31T13:49:19;20.55;78.82
65989;HTU21D;53592;51.402;6.054;2023-07-31T13:51:44;20.57;78.69
65989;HTU21D;53592;51.402;6.054;2023-07-31T13:54:11;20.61;78.56
65989;HTU21D;53592;51.402;6.054;2023-07-31T13:56:37;20.68;78.47
65989;HTU21D;53592;51.402;6.054;2023-07-31T13:59:03;20.66;78.28
65989;HTU21D;53592;51.402;6.054;2023-07-31T14:01:29;20.78;77.71
65989;HTU21D;53592;51.402;6.054;2023-07-31T14:03:54;20.75;78.14
65989;HTU21D;53592;51.402;6.054;2023-07-31T14:06:20;20.78;78.05
65989;HTU21D;53592;51.402;6.054;2023-07-31T14:08:45;20.86;77.76
65989;HTU21D;53592;51.402;6.054;2023-07-31T14:11:11;20.80;77.34
65989;HTU21D;53592;51.402;6.054;2023-07-31T14:13:36;20.77;77.18
65989;HTU21D;53592;51.402;6.054;2023-07-31T14:16:02;20.76;76.88
65989;HTU21D;53592;51.402;6.054;2023-07-31T14:18:31;20.65;77.47
65989;HTU21D;53592;51.402;6.054;2023-07-31T14:20:56;20.59;77.61
65989;HTU21D;53592;51.402;6.054;2023-07-31T14:23:22;20.61;77.15
65989;HTU21D;53592;51.402;6.054;2023-07-31T14:25:47;20.62;77.52
65989;HTU21D;53592;51.402;6.054;2023-07-31T14:28:13;20.60;77.80
65989;HTU21D;53592;51.402;6.054;2023-07-31T14:30:39;20.51;78.22
65989;HTU21D;53592;51.402;6.054;2023-07-31T14:33:04;20.44;78.47
65989;HTU21D;53592;51.402;6.054;2023-07-31T14:35:30;20.35;78.72
65989;HTU21D;53592;51.402;6.054;2023-07-31T14:37:55;20.30;79.04
65989;HTU21D;53592;51.402;6.054;2023-07-31T14:40:24;20.31;79.33
65989;HTU21D;53592;51.402;6.054;2023-07-31T14:42:50;20.25;79.49
65989;HTU21D;53592;51.402;6.054;2023-07-31T14:45:15;20.25;79.47
65989;HTU21D;53592;51.402;6.054;2023-07-31T14:47:41;20.24;79.61
65989;HTU21D;53592;51.402;6.054;2023-07-31T14:50:06;20.35;79.29
65989;HTU21D;53592;51.402;6.054;2023-07-31T14:52:32;20.30;79.53
65989;HTU21D;53592;51.402;6.054;2023-07-31T14:54:58;20.32;79.37
65989;HTU21D;53592;51.402;6.054;2023-07-31T14:57:23;20.31;79.60
65989;HTU21D;53592;51.402;6.054;2023-07-31T14:59:49;20.32;79.60
65989;HTU21D;53592;51.402;6.054;2023-07-31T15:02:15;20.33;79.75
65989;HTU21D;53592;51.402;6.054;2023-07-31T15:04:41;20.28;80.11
65989;HTU21D;53592;51.402;6.054;2023-07-31T15:07:10;20.27;80.47
65989;HTU21D;53592;51.402;6.054;2023-07-31T15:09:35;20.10;81.33
65989;HTU21D;53592;51.402;6.054;2023-07-31T15:12:01;20.04;81.75
65989;HTU21D;53592;51.402;6.054;2023-07-31T15:14:26;20.00;82.43
65989;HTU21D;53592;51.402;6.054;2023-07-31T15:16:56;19.92;82.81
65989;HTU21D;53592;51.402;6.054;2023-07-31T15:19:22;19.88;83.16
65989;HTU21D;53592;51.402;6.054;2023-07-31T15:21:48;19.82;83.56
65989;HTU21D;53592;51.402;6.054;2023-07-31T15:24:14;19.79;83.90
65989;HTU21D;53592;51.402;6.054;2023-07-31T15:26:42;19.71;84.15
65989;HTU21D;53592;51.402;6.054;2023-07-31T15:29:08;19.65;84.49
65989;HTU21D;53592;51.402;6.054;2023-07-31T15:31:41;19.66;84.44
65989;HTU21D;53592;51.402;6.054;2023-07-31T15:34:07;19.56;85.06
65989;HTU21D;53592;51.402;6.054;2023-07-31T15:36:32;19.53;85.29
65989;HTU21D;53592;51.402;6.054;2023-07-31T15:38:58;19.56;85.46